Etusivu
METAR-TAF:

METAR-TAF

Lentoasemat :

Kristiansandin lentoasema

Kristiansand, Norja

Leveyspiiri: 58-12N, Pituuspiiri: 008-05E, korkeus merenpinnasta: 1 m

Tämänhetkinen sää

Tämä raportti tehtiin 31 minuuttia sitten, kello 13.20 UTC
Tuuli 12 kn etelästä
Lämpötila 18°C
Kosteus 59%
Ilmanpaine 1027 hPa
Näkyvyys 10 km tai enemmän
ei pilviä alle 1500 m:ssä eikä cumulonimbus-pilviä

METAR: ENCN 201320Z 19012KT CAVOK 18/10 Q1027

Aika: 15:51 (13:51 UTC)

Sääennuste

Tämä raportti tehtiin 2 tuntia ja 51 minuuttia sitten, kello 11.00 UTC
Ennuste voimassa 20. päivästä klo 12 UTC - 20. päivään klo 21 UTC
Tuuli 12 kn etelästä/lounaasta
Näkyvyys 10 km tai enemmän
ei pilviä alle 1500 m:ssä eikä cumulonimbus-pilviä
Tulossa
20. päivästä klo 18 UTC - 20. päivään klo 20 UTC
Tuuli 5 kn eri suunnista

TAF: ENCN 201100Z 2012/2021 20012KT CAVOK BECMG 2018/2020 VRB05KT

Säähavainnot ja -ennusteet yli 4000 lentoasemalta (METAR- ja TAF-raportit).

Käytössä olevat sääasemat on merkitty karttaan keltaisilla ja punaisilla pisteillä.

Aseta hiiri pisteen päälle nähdäksesi sääaseman nimen.

Klikkaa sitten nähdäksesi säähavainnot ja -ennusteet.

Kartan vaihtaminen: klikkaa mustalla rastilla varustettuja vihreitä pisteitä, niin voit zoomata sisään; viivalla varustettua vihreää pistettä, niin voit zoomata ulos tai vihreitä nuolia, niin pääset viereisille kartoille.


METAR-TAF: